createdAt,value
2022-12-17T00:01:52.881Z,58.17
2022-12-17T00:04:39.489Z,57.55
2022-12-17T00:07:25.262Z,63.40
2022-12-17T00:10:10.881Z,66.65
2022-12-17T00:12:56.743Z,63.22
2022-12-17T00:15:42.600Z,70.25
2022-12-17T00:18:30.549Z,66.95
2022-12-17T00:21:18.101Z,68.32
2022-12-17T00:24:04.693Z,66.10
2022-12-17T00:27:02.261Z,71.68
2022-12-17T00:29:50.202Z,62.00
2022-12-17T00:32:35.953Z,59.80
2022-12-17T00:35:23.440Z,60.45
2022-12-17T00:38:09.294Z,50.97
2022-12-17T00:40:55.597Z,48.28
2022-12-17T00:43:43.021Z,54.92
2022-12-17T00:46:25.533Z,54.03
2022-12-17T00:49:11.130Z,56.67
2022-12-17T00:51:58.571Z,53.00
2022-12-17T00:54:44.403Z,52.55
2022-12-17T00:57:30.484Z,59.38
2022-12-17T01:00:16.400Z,57.28
2022-12-17T01:03:02.679Z,55.00
2022-12-17T01:05:48.502Z,59.60
2022-12-17T01:08:36.073Z,56.95
2022-12-17T01:11:24.749Z,62.80
2022-12-17T01:14:11.794Z,60.15
2022-12-17T01:16:58.032Z,60.55
2022-12-17T01:19:44.291Z,66.63
2022-12-17T01:22:29.918Z,59.30
2022-12-17T01:25:17.441Z,57.78
2022-12-17T01:28:07.332Z,52.60
2022-12-17T01:30:55.089Z,51.63
2022-12-17T01:33:43.143Z,51.75
2022-12-17T01:36:29.159Z,55.90
2022-12-17T01:39:15.112Z,58.70
2022-12-17T01:42:02.306Z,59.00
2022-12-17T01:45:05.892Z,56.63
2022-12-17T01:47:56.509Z,52.72
2022-12-17T01:50:45.249Z,61.13
2022-12-17T01:53:33.375Z,57.03
2022-12-17T01:56:19.388Z,50.03
2022-12-17T01:59:07.286Z,63.80
2022-12-17T02:01:53.316Z,44.25
2022-12-17T02:04:39.317Z,51.58
2022-12-17T02:07:51.424Z,52.67
2022-12-17T02:10:43.020Z,54.20
2022-12-17T02:13:37.141Z,46.20
2022-12-17T02:16:31.575Z,48.60
2022-12-17T02:19:22.417Z,51.83
2022-12-17T02:22:16.317Z,47.75
2022-12-17T02:25:30.581Z,42.20
2022-12-17T02:28:18.680Z,54.25
2022-12-17T02:31:05.104Z,49.90
2022-12-17T02:33:51.763Z,51.97
2022-12-17T02:36:37.755Z,47.28
2022-12-17T02:39:32.177Z,63.78
2022-12-17T02:42:18.491Z,59.95
2022-12-17T02:45:05.771Z,55.67
2022-12-17T02:47:51.475Z,68.38
2022-12-17T02:50:37.531Z,65.25
2022-12-17T02:53:23.781Z,59.00
2022-12-17T02:56:10.036Z,59.15
2022-12-17T02:58:55.826Z,55.85
2022-12-17T03:01:43.325Z,63.30
2022-12-17T03:04:29.446Z,73.18
2022-12-17T03:07:15.534Z,65.80
2022-12-17T03:10:01.246Z,63.22
2022-12-17T03:12:49.485Z,60.42
2022-12-17T03:15:35.407Z,68.97
2022-12-17T03:18:23.128Z,53.83
2022-12-17T03:21:11.824Z,61.38
2022-12-17T03:23:58.078Z,61.72
2022-12-17T03:26:43.752Z,62.60
2022-12-17T03:29:29.926Z,60.53
2022-12-17T03:32:16.087Z,64.68
2022-12-17T03:35:03.326Z,63.05
2022-12-17T03:37:49.061Z,60.10
2022-12-17T03:40:43.485Z,65.82
2022-12-17T03:43:33.527Z,66.18
2022-12-17T03:46:20.286Z,61.92
2022-12-17T03:49:06.154Z,70.30
2022-12-17T03:51:53.538Z,62.58
2022-12-17T03:54:39.268Z,68.43
2022-12-17T03:57:30.977Z,55.35
2022-12-17T04:00:16.919Z,69.70
2022-12-17T04:03:03.283Z,63.97
2022-12-17T04:05:49.065Z,61.35
2022-12-17T04:08:36.358Z,55.65
2022-12-17T04:11:30.485Z,64.25
2022-12-17T04:14:19.629Z,61.85
2022-12-17T04:17:05.424Z,65.03
2022-12-17T04:19:51.312Z,68.95
2022-12-17T04:22:37.203Z,73.63
2022-12-17T04:25:25.442Z,69.00
2022-12-17T04:28:11.275Z,63.80
2022-12-17T04:30:57.835Z,60.72
2022-12-17T04:33:44.012Z,60.30
2022-12-17T04:36:30.021Z,60.80
2022-12-17T04:39:15.672Z,61.80
2022-12-17T04:42:03.201Z,51.35
2022-12-17T04:44:48.829Z,54.03
2022-12-17T04:47:34.672Z,61.97
2022-12-17T04:50:20.611Z,74.28
2022-12-17T04:53:06.873Z,94.13
2022-12-17T04:55:52.675Z,108.38
2022-12-17T04:58:40.327Z,120.97
2022-12-17T05:01:26.171Z,98.50
2022-12-17T05:04:12.652Z,96.15
2022-12-17T05:06:58.455Z,84.50
2022-12-17T05:09:44.617Z,77.22
2022-12-17T05:12:30.335Z,80.28
2022-12-17T05:15:17.849Z,88.45
2022-12-17T05:18:03.861Z,92.63
2022-12-17T05:20:50.276Z,112.38
2022-12-17T05:23:36.419Z,97.35
2022-12-17T05:26:25.286Z,102.82
2022-12-17T05:29:15.619Z,84.72
2022-12-17T05:32:03.549Z,87.32
2022-12-17T05:34:49.387Z,99.15
2022-12-17T05:37:35.877Z,104.72
2022-12-17T05:40:22.089Z,113.18
2022-12-17T05:43:15.241Z,108.15
2022-12-17T05:46:01.359Z,129.05
2022-12-17T05:48:49.026Z,119.03
2022-12-17T05:51:38.657Z,104.50
2022-12-17T05:54:25.316Z,91.63
2022-12-17T05:57:11.150Z,94.85
2022-12-17T05:59:57.499Z,105.13
2022-12-17T06:02:43.300Z,121.70
2022-12-17T06:05:30.989Z,106.78
2022-12-17T06:08:22.204Z,140.50
2022-12-17T06:11:08.509Z,119.40
2022-12-17T06:13:54.399Z,131.35
2022-12-17T06:16:40.427Z,135.75
2022-12-17T06:19:26.423Z,108.78
2022-12-17T06:22:13.782Z,114.53
2022-12-17T06:24:59.455Z,124.53
2022-12-17T06:27:45.630Z,106.80
2022-12-17T06:30:31.506Z,92.25
2022-12-17T06:33:24.956Z,98.85
2022-12-17T06:36:15.384Z,101.03
2022-12-17T06:39:07.233Z,81.13
2022-12-17T06:41:53.072Z,80.13
2022-12-17T06:44:46.608Z,64.13
2022-12-17T06:47:32.223Z,75.65
2022-12-17T06:50:18.239Z,65.25
2022-12-17T06:53:04.165Z,68.32
2022-12-17T06:55:51.335Z,68.93
2022-12-17T06:58:39.094Z,59.72
2022-12-17T07:01:25.315Z,59.90
2022-12-17T07:04:11.301Z,49.03
2022-12-17T07:06:57.473Z,51.55
2022-12-17T07:09:43.460Z,52.47
2022-12-17T07:12:30.542Z,49.13
2022-12-17T07:15:16.384Z,47.25
2022-12-17T07:18:12.258Z,39.88
2022-12-17T07:20:58.253Z,41.63
2022-12-17T07:23:58.946Z,43.35
2022-12-17T07:26:44.540Z,47.13
2022-12-17T07:29:31.966Z,43.70
2022-12-17T07:32:17.490Z,44.55
2022-12-17T07:35:03.837Z,39.97
2022-12-17T07:37:49.441Z,39.00
2022-12-17T07:40:35.339Z,37.70
2022-12-17T07:43:27.826Z,29.65
2022-12-17T07:46:15.295Z,28.15
2022-12-17T07:49:01.104Z,27.50
2022-12-17T07:51:52.593Z,25.60
2022-12-17T07:54:38.256Z,26.95
2022-12-17T07:57:24.855Z,25.08
2022-12-17T08:00:10.667Z,24.00
2022-12-17T08:02:58.308Z,21.95
2022-12-17T08:05:43.999Z,24.85
2022-12-17T08:08:31.468Z,22.95
2022-12-17T08:11:17.565Z,23.42
2022-12-17T08:14:04.223Z,21.33
2022-12-17T08:16:50.164Z,24.27
2022-12-17T08:19:37.598Z,27.80
2022-12-17T08:22:23.507Z,23.52
2022-12-17T08:25:09.714Z,23.30
2022-12-17T08:27:55.249Z,23.85
2022-12-17T08:30:43.785Z,25.23
2022-12-17T08:33:29.492Z,25.50
2022-12-17T08:36:19.737Z,24.15
2022-12-17T08:39:05.793Z,22.55
2022-12-17T08:41:54.891Z,30.65
2022-12-17T08:44:42.553Z,23.45
2022-12-17T08:47:28.681Z,25.90
2022-12-17T08:50:15.195Z,32.42
2022-12-17T08:53:02.553Z,29.30
2022-12-17T08:55:48.780Z,31.27
2022-12-17T08:58:35.082Z,31.35
2022-12-17T09:01:21.650Z,24.85
2022-12-17T09:04:07.877Z,25.23
2022-12-17T09:06:53.826Z,24.10
2022-12-17T09:09:52.889Z,21.70
2022-12-17T09:12:38.660Z,23.13
2022-12-17T09:15:25.644Z,23.73
2022-12-17T09:18:11.724Z,26.90
2022-12-17T09:20:57.866Z,23.33
2022-12-17T09:23:43.696Z,25.45
2022-12-17T09:26:31.118Z,23.10
2022-12-17T09:29:18.429Z,23.45
2022-12-17T09:32:08.482Z,28.33
2022-12-17T09:34:54.335Z,26.45
2022-12-17T09:37:40.706Z,24.90
2022-12-17T09:40:33.900Z,27.20
2022-12-17T09:43:25.274Z,25.52
2022-12-17T09:46:19.556Z,23.58
2022-12-17T09:49:18.592Z,31.38
2022-12-17T09:52:04.782Z,30.27
2022-12-17T09:55:00.849Z,29.08
2022-12-17T09:57:50.651Z,37.38
2022-12-17T10:00:41.240Z,37.10
2022-12-17T10:03:30.874Z,39.13
2022-12-17T10:06:22.676Z,37.28
2022-12-17T10:09:12.807Z,44.40
2022-12-17T10:11:59.095Z,43.92
2022-12-17T10:14:45.255Z,45.70
2022-12-17T10:17:40.880Z,51.28
2022-12-17T10:20:39.655Z,47.72
2022-12-17T10:23:25.772Z,49.92
2022-12-17T10:26:13.070Z,51.13
2022-12-17T10:28:59.773Z,50.03
2022-12-17T10:31:49.302Z,48.45
2022-12-17T10:34:38.661Z,45.72
2022-12-17T10:37:25.431Z,47.50
2022-12-17T10:40:15.517Z,44.78
2022-12-17T10:43:02.699Z,47.40
2022-12-17T10:45:50.945Z,48.00
2022-12-17T10:48:40.007Z,44.95
2022-12-17T10:54:48.798Z,45.13
2022-12-17T10:57:49.143Z,50.97
2022-12-17T11:03:47.260Z,45.10
2022-12-17T11:06:42.549Z,46.95
2022-12-17T11:09:49.965Z,49.40
2022-12-17T11:12:38.712Z,47.58
2022-12-17T11:15:34.279Z,52.90
2022-12-17T11:18:20.941Z,48.28
2022-12-17T11:21:13.596Z,51.13
2022-12-17T11:24:03.299Z,42.90
2022-12-17T11:26:52.480Z,43.58
2022-12-17T11:29:38.235Z,50.47
2022-12-17T11:33:06.461Z,45.67
2022-12-17T11:35:59.258Z,45.60
2022-12-17T11:38:54.678Z,55.97
2022-12-17T11:42:15.032Z,56.92
2022-12-17T11:45:12.411Z,48.65
2022-12-17T11:48:04.243Z,50.97
2022-12-17T11:50:58.118Z,47.22
2022-12-17T11:54:08.691Z,55.80
2022-12-17T11:57:00.377Z,46.85
2022-12-17T11:59:54.946Z,48.35
2022-12-17T12:03:07.685Z,43.72
2022-12-17T12:06:05.725Z,52.33
2022-12-17T12:08:56.020Z,51.13
2022-12-17T12:11:49.277Z,45.03
2022-12-17T12:14:51.885Z,50.30
2022-12-17T12:17:56.497Z,55.35
2022-12-17T12:23:02.959Z,44.85
2022-12-17T12:25:58.693Z,47.17
2022-12-17T12:28:53.480Z,51.22
2022-12-17T12:32:04.684Z,52.20
2022-12-17T12:34:55.434Z,51.17
2022-12-17T12:37:42.666Z,56.70
2022-12-17T12:40:40.011Z,61.72
2022-12-17T12:43:33.892Z,56.22
2022-12-17T12:46:27.154Z,52.70
2022-12-17T12:49:19.449Z,58.15
2022-12-17T12:52:06.592Z,57.30
2022-12-17T12:55:11.969Z,55.63
2022-12-17T12:58:02.242Z,58.47
2022-12-17T13:00:56.758Z,60.00
2022-12-17T13:03:47.121Z,67.43
2022-12-17T13:06:37.979Z,60.45
2022-12-17T13:09:07.623Z,63.75
2022-12-17T13:11:39.535Z,57.90
2022-12-17T13:14:17.089Z,54.53
2022-12-17T13:16:54.433Z,47.90
2022-12-17T13:19:36.146Z,48.28
2022-12-17T13:22:30.124Z,50.67
2022-12-17T13:25:16.479Z,55.05
2022-12-17T13:27:45.457Z,56.67
2022-12-17T13:30:24.389Z,61.58
2022-12-17T13:33:04.520Z,61.38
2022-12-17T13:35:42.231Z,63.13
2022-12-17T13:38:21.723Z,58.92
2022-12-17T13:41:08.117Z,66.70
2022-12-17T13:43:43.591Z,58.80
2022-12-17T13:46:25.332Z,61.17
2022-12-17T13:48:56.349Z,66.07
2022-12-17T13:51:26.981Z,61.42
2022-12-17T13:53:57.569Z,57.97
2022-12-17T13:56:29.088Z,63.53
2022-12-17T13:59:08.482Z,70.70
2022-12-17T14:01:47.899Z,63.20
2022-12-17T14:04:24.550Z,59.42
2022-12-17T14:06:56.097Z,60.67
2022-12-17T14:09:35.217Z,66.85
2022-12-17T14:12:23.883Z,61.95
2022-12-17T14:14:57.051Z,64.47
2022-12-17T14:17:29.969Z,57.13
2022-12-17T14:20:01.449Z,59.75
2022-12-17T14:22:36.266Z,64.90
2022-12-17T14:25:07.245Z,62.00
2022-12-17T14:27:37.582Z,52.70
2022-12-17T14:30:22.927Z,50.95
2022-12-17T14:32:53.668Z,53.08
2022-12-17T14:35:27.784Z,55.00
2022-12-17T14:37:57.423Z,55.10
2022-12-17T14:40:28.014Z,51.45
2022-12-17T14:43:01.422Z,55.78
2022-12-17T14:45:30.544Z,47.15
2022-12-17T14:48:04.386Z,49.63
2022-12-17T14:50:35.252Z,51.00
2022-12-17T14:53:25.003Z,48.92
2022-12-17T14:55:56.226Z,50.35
2022-12-17T14:58:26.370Z,52.80
2022-12-17T15:00:58.857Z,49.88
2022-12-17T15:03:30.201Z,51.63
2022-12-17T15:06:02.381Z,48.60
2022-12-17T15:08:33.756Z,50.45
2022-12-17T15:11:02.804Z,46.55
2022-12-17T15:13:31.463Z,49.97
2022-12-17T15:16:00.214Z,58.45
2022-12-17T15:18:30.019Z,55.20
2022-12-17T15:20:58.983Z,51.38
2022-12-17T15:23:27.325Z,55.33
2022-12-17T15:25:56.460Z,54.83
2022-12-17T15:28:24.972Z,55.25
2022-12-17T15:30:53.754Z,52.03
2022-12-17T15:33:22.276Z,48.50
2022-12-17T15:35:52.574Z,52.00
2022-12-17T15:38:21.119Z,48.03
2022-12-17T15:40:49.660Z,52.88
2022-12-17T15:43:16.867Z,45.80
2022-12-17T15:45:47.179Z,54.58
2022-12-17T15:48:18.939Z,47.00
2022-12-17T15:50:48.570Z,50.25
2022-12-17T15:53:18.307Z,42.70
2022-12-17T15:55:46.824Z,51.05
2022-12-17T15:58:16.249Z,62.25
2022-12-17T16:00:46.330Z,44.67
2022-12-17T16:03:14.719Z,49.60
2022-12-17T16:05:43.407Z,49.13
2022-12-17T16:08:11.698Z,55.30
2022-12-17T16:10:42.049Z,54.50
2022-12-17T16:13:10.716Z,50.95
2022-12-17T16:15:39.367Z,55.85
2022-12-17T16:18:07.683Z,44.00
2022-12-17T16:20:36.254Z,49.38
2022-12-17T16:23:04.584Z,44.72
2022-12-17T16:25:33.599Z,47.72
2022-12-17T16:28:03.331Z,43.38
2022-12-17T16:30:31.894Z,45.03
2022-12-17T16:33:00.389Z,45.67
2022-12-17T16:35:29.697Z,49.08
2022-12-17T16:37:58.090Z,43.15
2022-12-17T16:40:26.684Z,52.50
2022-12-17T16:42:54.941Z,40.83
2022-12-17T16:45:24.897Z,50.05
2022-12-17T16:47:53.150Z,45.83
2022-12-17T16:50:21.839Z,46.70
2022-12-17T16:52:51.197Z,49.87
2022-12-17T16:55:19.937Z,51.42
2022-12-17T16:57:48.269Z,49.83
2022-12-17T17:00:18.175Z,53.92
2022-12-17T17:02:52.974Z,62.53
2022-12-17T17:05:22.285Z,54.78
2022-12-17T17:07:52.244Z,50.65
2022-12-17T17:10:20.924Z,47.63
2022-12-17T17:12:49.200Z,53.92
2022-12-17T17:15:17.857Z,46.92
2022-12-17T17:17:53.940Z,52.10
2022-12-17T17:20:27.133Z,52.50
2022-12-17T17:22:55.385Z,52.42
2022-12-17T17:25:34.676Z,55.15
2022-12-17T17:28:14.611Z,50.90
2022-12-17T17:30:43.312Z,48.90
2022-12-17T17:33:12.972Z,58.87
2022-12-17T17:35:42.503Z,43.60
2022-12-17T17:38:11.167Z,53.63
2022-12-17T17:40:39.947Z,58.63
2022-12-17T17:43:08.217Z,67.38
2022-12-17T17:45:36.800Z,66.00
2022-12-17T17:48:05.291Z,62.72
2022-12-17T17:50:35.343Z,63.75
2022-12-17T17:53:04.235Z,61.92
2022-12-17T17:55:35.853Z,61.53
2022-12-17T17:58:04.525Z,61.88
2022-12-17T18:00:33.240Z,53.42
2022-12-17T18:03:04.076Z,63.57
2022-12-17T18:05:36.983Z,63.15
2022-12-17T18:08:09.977Z,55.63
2022-12-17T18:10:38.586Z,60.03
2022-12-17T18:13:24.883Z,59.90
2022-12-17T18:15:53.841Z,56.13
2022-12-17T18:18:22.579Z,59.88
2022-12-17T18:20:51.148Z,65.43
2022-12-17T18:23:20.924Z,58.72
2022-12-17T18:25:49.481Z,58.25
2022-12-17T18:28:17.759Z,59.58
2022-12-17T18:30:46.710Z,63.15
2022-12-17T18:33:15.026Z,66.65
2022-12-17T18:35:46.198Z,57.30
2022-12-17T18:38:14.821Z,61.55
2022-12-17T18:40:45.066Z,61.58
2022-12-17T18:43:25.897Z,56.33
2022-12-17T18:45:54.485Z,60.83
2022-12-17T18:48:23.146Z,66.53
2022-12-17T18:50:51.723Z,55.78
2022-12-17T18:53:20.299Z,63.85
2022-12-17T18:55:50.556Z,60.75
2022-12-17T18:58:19.125Z,64.10
2022-12-17T19:00:49.299Z,62.58
2022-12-17T19:03:20.454Z,54.03
2022-12-17T19:05:54.324Z,53.35
2022-12-17T19:08:23.033Z,59.22
2022-12-17T19:10:58.318Z,64.78
2022-12-17T19:13:26.588Z,65.93
2022-12-17T19:15:55.195Z,68.18
2022-12-17T19:18:23.833Z,63.08
2022-12-17T19:20:58.238Z,64.70
2022-12-17T19:23:33.081Z,57.28
2022-12-17T19:26:20.649Z,61.28
2022-12-17T19:28:51.215Z,62.90
2022-12-17T19:31:22.302Z,57.13
2022-12-17T19:33:55.314Z,64.53
2022-12-17T19:36:28.421Z,60.35
2022-12-17T19:38:59.491Z,55.88
2022-12-17T19:41:31.968Z,61.42
2022-12-17T19:44:01.418Z,58.88
2022-12-17T19:46:32.509Z,60.75
2022-12-17T19:49:02.828Z,67.90
2022-12-17T19:51:32.625Z,61.97
2022-12-17T19:54:07.996Z,59.75
2022-12-17T19:56:39.871Z,72.40
2022-12-17T19:59:09.290Z,63.58
2022-12-17T20:01:41.087Z,61.03
2022-12-17T20:04:12.289Z,64.18
2022-12-17T20:06:40.881Z,65.00
2022-12-17T20:09:09.327Z,64.50
2022-12-17T20:11:40.353Z,59.22
2022-12-17T20:14:12.122Z,62.97
2022-12-17T20:16:43.108Z,65.90
2022-12-17T20:19:15.771Z,67.65
2022-12-17T20:21:44.927Z,67.03
2022-12-17T20:24:13.930Z,69.05
2022-12-17T20:26:47.170Z,64.22
2022-12-17T20:29:15.912Z,68.18
2022-12-17T20:31:49.587Z,66.72
2022-12-17T20:34:24.097Z,66.00
2022-12-17T20:36:55.113Z,60.85
2022-12-17T20:39:27.618Z,65.75
2022-12-17T20:41:58.555Z,62.50
2022-12-17T20:44:28.924Z,60.95
2022-12-17T20:46:58.594Z,58.85
2022-12-17T20:49:27.356Z,68.00
2022-12-17T20:51:56.460Z,60.03
2022-12-17T20:54:25.704Z,60.95
2022-12-17T20:56:54.442Z,62.35
2022-12-17T20:59:24.287Z,64.33
2022-12-17T21:01:56.266Z,64.82
2022-12-17T21:04:26.110Z,64.57
2022-12-17T21:06:57.328Z,65.82
2022-12-17T21:09:26.653Z,65.10
2022-12-17T21:11:55.229Z,68.53
2022-12-17T21:14:29.168Z,75.32
2022-12-17T21:17:01.237Z,72.00
2022-12-17T21:19:33.534Z,69.88
2022-12-17T21:22:02.484Z,67.05
2022-12-17T21:24:31.047Z,71.70
2022-12-17T21:27:01.160Z,66.97
2022-12-17T21:29:31.342Z,68.90
2022-12-17T21:32:00.020Z,69.50
2022-12-17T21:34:29.309Z,67.73
2022-12-17T21:36:57.977Z,71.10
2022-12-17T21:39:26.331Z,70.57
2022-12-17T21:42:12.627Z,64.50
2022-12-17T21:44:42.717Z,60.92
2022-12-17T21:47:11.445Z,64.85
2022-12-17T21:49:39.835Z,66.38
2022-12-17T21:52:11.293Z,67.15
2022-12-17T21:54:40.392Z,60.95
2022-12-17T21:57:09.524Z,70.22
2022-12-17T21:59:38.201Z,55.40
2022-12-17T22:04:37.209Z,57.38
2022-12-17T22:07:15.038Z,56.65
2022-12-17T22:09:58.621Z,55.70
2022-12-17T22:12:57.926Z,51.35
2022-12-17T22:15:27.988Z,49.45
2022-12-17T22:18:03.575Z,49.25
2022-12-17T22:20:31.885Z,39.58
2022-12-17T22:23:00.695Z,48.20
2022-12-17T22:25:29.235Z,46.87
2022-12-17T22:27:57.784Z,47.28
2022-12-17T22:30:43.642Z,53.42
2022-12-17T22:33:43.377Z,43.90
2022-12-17T22:38:12.331Z,41.97
2022-12-17T22:42:19.635Z,46.67
2022-12-17T22:44:30.261Z,46.00
2022-12-17T22:44:53.113Z,43.15
2022-12-17T22:47:22.942Z,53.85
2022-12-17T22:49:52.958Z,49.13
2022-12-17T22:52:21.881Z,51.60
2022-12-17T22:54:51.307Z,45.05
2022-12-17T22:57:37.657Z,38.10
2022-12-17T23:00:15.890Z,43.65
2022-12-17T23:02:44.532Z,47.45
2022-12-17T23:05:14.736Z,49.95
2022-12-17T23:07:43.154Z,44.80
2022-12-17T23:10:12.215Z,53.42
2022-12-17T23:13:02.030Z,48.47
2022-12-17T23:15:34.468Z,43.72
2022-12-17T23:18:04.725Z,48.20
2022-12-17T23:20:36.264Z,47.35
2022-12-17T23:23:04.824Z,54.83
2022-12-17T23:25:33.418Z,42.30
2022-12-17T23:28:01.709Z,43.80
2022-12-17T23:30:30.298Z,49.63
2022-12-17T23:32:58.768Z,57.90
2022-12-17T23:35:27.386Z,58.25
2022-12-17T23:37:57.419Z,55.73
2022-12-17T23:40:26.181Z,45.25
2022-12-17T23:42:54.508Z,59.20
2022-12-17T23:45:23.558Z,55.63
2022-12-17T23:47:51.917Z,53.03
2022-12-17T23:50:20.507Z,56.40
2022-12-17T23:52:48.748Z,51.47
2022-12-17T23:55:19.230Z,41.65
2022-12-17T23:57:47.908Z,48.95
